sensor_id;sensor_type;location;lat;lon;timestamp;P1;durP1;ratioP1;P2;durP2;ratioP2
58784;SDS011;44557;51.862;19.378;2023-02-15T00:01:30;36.90;;;25.60;;
58784;SDS011;44557;51.862;19.378;2023-02-15T00:03:32;37.20;;;24.80;;
58784;SDS011;44557;51.862;19.378;2023-02-15T00:05:34;35.70;;;25.20;;
58784;SDS011;44557;51.862;19.378;2023-02-15T00:07:35;36.30;;;26.90;;
58784;SDS011;44557;51.862;19.378;2023-02-15T00:09:37;36.60;;;24.90;;
58784;SDS011;44557;51.862;19.378;2023-02-15T00:11:38;35.30;;;25.80;;
58784;SDS011;44557;51.862;19.378;2023-02-15T00:13:40;34.50;;;25.40;;
58784;SDS011;44557;51.862;19.378;2023-02-15T00:15:42;36.20;;;24.80;;
58784;SDS011;44557;51.862;19.378;2023-02-15T00:17:44;37.50;;;25.80;;
58784;SDS011;44557;51.862;19.378;2023-02-15T00:19:45;32.70;;;25.00;;
58784;SDS011;44557;51.862;19.378;2023-02-15T00:21:47;32.90;;;23.90;;
58784;SDS011;44557;51.862;19.378;2023-02-15T00:23:49;37.30;;;26.30;;
58784;SDS011;44557;51.862;19.378;2023-02-15T00:25:51;36.40;;;25.30;;
58784;SDS011;44557;51.862;19.378;2023-02-15T00:27:52;35.60;;;25.70;;
58784;SDS011;44557;51.862;19.378;2023-02-15T00:29:54;33.20;;;25.10;;
58784;SDS011;44557;51.862;19.378;2023-02-15T00:31:55;34.60;;;25.30;;
58784;SDS011;44557;51.862;19.378;2023-02-15T00:34:04;32.90;;;24.00;;
58784;SDS011;44557;51.862;19.378;2023-02-15T00:36:08;35.70;;;25.60;;
58784;SDS011;44557;51.862;19.378;2023-02-15T00:38:11;33.00;;;24.40;;
58784;SDS011;44557;51.862;19.378;2023-02-15T00:40:13;34.00;;;24.20;;
58784;SDS011;44557;51.862;19.378;2023-02-15T00:42:15;35.90;;;25.60;;
58784;SDS011;44557;51.862;19.378;2023-02-15T00:44:16;32.10;;;24.50;;
58784;SDS011;44557;51.862;19.378;2023-02-15T00:46:18;35.00;;;26.00;;
58784;SDS011;44557;51.862;19.378;2023-02-15T00:48:20;35.60;;;25.60;;
58784;SDS011;44557;51.862;19.378;2023-02-15T00:50:21;37.20;;;26.00;;
58784;SDS011;44557;51.862;19.378;2023-02-15T00:52:23;36.50;;;25.10;;
58784;SDS011;44557;51.862;19.378;2023-02-15T00:54:24;38.00;;;27.20;;
58784;SDS011;44557;51.862;19.378;2023-02-15T00:56:26;36.50;;;27.80;;
58784;SDS011;44557;51.862;19.378;2023-02-15T00:58:29;37.60;;;26.90;;
58784;SDS011;44557;51.862;19.378;2023-02-15T01:00:30;33.60;;;25.90;;
58784;SDS011;44557;51.862;19.378;2023-02-15T01:02:32;37.60;;;26.10;;
58784;SDS011;44557;51.862;19.378;2023-02-15T01:04:33;38.20;;;26.80;;
58784;SDS011;44557;51.862;19.378;2023-02-15T01:06:35;35.30;;;26.70;;
58784;SDS011;44557;51.862;19.378;2023-02-15T01:08:37;38.30;;;27.60;;
58784;SDS011;44557;51.862;19.378;2023-02-15T01:10:39;35.80;;;29.10;;
58784;SDS011;44557;51.862;19.378;2023-02-15T01:12:41;41.30;;;31.20;;
58784;SDS011;44557;51.862;19.378;2023-02-15T01:14:42;41.20;;;31.00;;
58784;SDS011;44557;51.862;19.378;2023-02-15T01:16:44;41.80;;;30.10;;
58784;SDS011;44557;51.862;19.378;2023-02-15T01:18:45;37.30;;;28.80;;
58784;SDS011;44557;51.862;19.378;2023-02-15T01:20:47;39.10;;;28.70;;
58784;SDS011;44557;51.862;19.378;2023-02-15T01:22:49;38.10;;;27.90;;
58784;SDS011;44557;51.862;19.378;2023-02-15T01:24:51;35.30;;;26.70;;
58784;SDS011;44557;51.862;19.378;2023-02-15T01:26:52;36.60;;;25.70;;
58784;SDS011;44557;51.862;19.378;2023-02-15T01:28:54;37.50;;;26.20;;
58784;SDS011;44557;51.862;19.378;2023-02-15T01:30:55;38.70;;;27.20;;
58784;SDS011;44557;51.862;19.378;2023-02-15T01:32:57;39.50;;;26.90;;
58784;SDS011;44557;51.862;19.378;2023-02-15T01:34:58;37.10;;;26.50;;
58784;SDS011;44557;51.862;19.378;2023-02-15T01:37:00;40.60;;;27.00;;
58784;SDS011;44557;51.862;19.378;2023-02-15T01:39:02;38.50;;;27.30;;
58784;SDS011;44557;51.862;19.378;2023-02-15T01:41:03;36.00;;;25.00;;
58784;SDS011;44557;51.862;19.378;2023-02-15T01:43:27;36.30;;;25.80;;
58784;SDS011;44557;51.862;19.378;2023-02-15T01:45:41;39.90;;;27.10;;
58784;SDS011;44557;51.862;19.378;2023-02-15T01:47:46;38.90;;;26.10;;
58784;SDS011;44557;51.862;19.378;2023-02-15T01:49:57;38.00;;;26.80;;
58784;SDS011;44557;51.862;19.378;2023-02-15T01:54:05;35.50;;;25.00;;
58784;SDS011;44557;51.862;19.378;2023-02-15T01:56:14;36.20;;;25.50;;
58784;SDS011;44557;51.862;19.378;2023-02-15T01:58:21;38.40;;;26.10;;
58784;SDS011;44557;51.862;19.378;2023-02-15T02:00:23;37.50;;;25.60;;
58784;SDS011;44557;51.862;19.378;2023-02-15T02:02:25;36.30;;;25.70;;
58784;SDS011;44557;51.862;19.378;2023-02-15T02:04:36;35.50;;;25.60;;
58784;SDS011;44557;51.862;19.378;2023-02-15T02:06:42;35.20;;;25.70;;
58784;SDS011;44557;51.862;19.378;2023-02-15T02:08:47;35.60;;;25.60;;
58784;SDS011;44557;51.862;19.378;2023-02-15T02:10:49;36.50;;;27.20;;
58784;SDS011;44557;51.862;19.378;2023-02-15T02:12:54;40.40;;;27.90;;
58784;SDS011;44557;51.862;19.378;2023-02-15T02:15:00;35.30;;;26.40;;
58784;SDS011;44557;51.862;19.378;2023-02-15T02:21:50;36.40;;;26.60;;
58784;SDS011;44557;51.862;19.378;2023-02-15T02:36:02;38.50;;;27.80;;
58784;SDS011;44557;51.862;19.378;2023-02-15T02:38:25;37.00;;;26.30;;
58784;SDS011;44557;51.862;19.378;2023-02-15T02:40:53;36.20;;;25.80;;
58784;SDS011;44557;51.862;19.378;2023-02-15T02:43:00;35.90;;;25.60;;
58784;SDS011;44557;51.862;19.378;2023-02-15T02:45:12;33.50;;;24.80;;
58784;SDS011;44557;51.862;19.378;2023-02-15T02:49:40;37.00;;;25.40;;
58784;SDS011;44557;51.862;19.378;2023-02-15T02:51:43;36.20;;;25.40;;
58784;SDS011;44557;51.862;19.378;2023-02-15T02:53:45;38.90;;;27.10;;
58784;SDS011;44557;51.862;19.378;2023-02-15T02:55:48;36.90;;;26.30;;
58784;SDS011;44557;51.862;19.378;2023-02-15T02:58:10;34.10;;;25.60;;
58784;SDS011;44557;51.862;19.378;2023-02-15T03:00:12;37.70;;;25.80;;
58784;SDS011;44557;51.862;19.378;2023-02-15T03:02:18;36.50;;;26.20;;
58784;SDS011;44557;51.862;19.378;2023-02-15T03:04:28;38.60;;;26.50;;
58784;SDS011;44557;51.862;19.378;2023-02-15T03:06:36;34.60;;;25.70;;
58784;SDS011;44557;51.862;19.378;2023-02-15T03:09:06;35.70;;;26.40;;
58784;SDS011;44557;51.862;19.378;2023-02-15T03:11:15;33.70;;;24.20;;
58784;SDS011;44557;51.862;19.378;2023-02-15T03:13:17;34.20;;;25.40;;
58784;SDS011;44557;51.862;19.378;2023-02-15T03:15:22;36.70;;;24.60;;
58784;SDS011;44557;51.862;19.378;2023-02-15T03:17:27;35.60;;;24.70;;
58784;SDS011;44557;51.862;19.378;2023-02-15T03:19:33;34.80;;;24.40;;
58784;SDS011;44557;51.862;19.378;2023-02-15T03:21:44;32.10;;;24.00;;
58784;SDS011;44557;51.862;19.378;2023-02-15T03:24:00;31.40;;;22.70;;
58784;SDS011;44557;51.862;19.378;2023-02-15T03:26:15;32.80;;;23.60;;
58784;SDS011;44557;51.862;19.378;2023-02-15T03:28:21;31.50;;;22.40;;
58784;SDS011;44557;51.862;19.378;2023-02-15T03:30:25;25.20;;;17.60;;
58784;SDS011;44557;51.862;19.378;2023-02-15T03:32:30;20.00;;;16.30;;
58784;SDS011;44557;51.862;19.378;2023-02-15T03:34:34;21.40;;;15.80;;
58784;SDS011;44557;51.862;19.378;2023-02-15T03:39:29;25.90;;;17.50;;
58784;SDS011;44557;51.862;19.378;2023-02-15T03:41:18;25.50;;;19.00;;
58784;SDS011;44557;51.862;19.378;2023-02-15T03:45:31;29.90;;;21.90;;
58784;SDS011;44557;51.862;19.378;2023-02-15T03:47:41;28.10;;;20.50;;
58784;SDS011;44557;51.862;19.378;2023-02-15T03:49:53;28.00;;;20.60;;
58784;SDS011;44557;51.862;19.378;2023-02-15T03:52:26;30.10;;;21.70;;
58784;SDS011;44557;51.862;19.378;2023-02-15T03:54:30;30.00;;;22.70;;
58784;SDS011;44557;51.862;19.378;2023-02-15T03:56:43;33.00;;;23.00;;
58784;SDS011;44557;51.862;19.378;2023-02-15T03:59:05;29.50;;;21.00;;
58784;SDS011;44557;51.862;19.378;2023-02-15T04:04:12;26.90;;;20.50;;
58784;SDS011;44557;51.862;19.378;2023-02-15T04:06:19;28.70;;;20.50;;
58784;SDS011;44557;51.862;19.378;2023-02-15T04:08:21;28.50;;;21.30;;
58784;SDS011;44557;51.862;19.378;2023-02-15T04:10:42;28.20;;;22.10;;
58784;SDS011;44557;51.862;19.378;2023-02-15T04:12:59;27.50;;;20.50;;
58784;SDS011;44557;51.862;19.378;2023-02-15T04:15:00;26.70;;;19.80;;
58784;SDS011;44557;51.862;19.378;2023-02-15T04:17:20;26.90;;;20.20;;
58784;SDS011;44557;51.862;19.378;2023-02-15T04:19:21;26.10;;;19.70;;
58784;SDS011;44557;51.862;19.378;2023-02-15T04:21:41;25.70;;;18.70;;
58784;SDS011;44557;51.862;19.378;2023-02-15T04:24:01;27.60;;;18.80;;
58784;SDS011;44557;51.862;19.378;2023-02-15T04:26:21;26.10;;;20.00;;
58784;SDS011;44557;51.862;19.378;2023-02-15T04:28:23;26.80;;;18.60;;
58784;SDS011;44557;51.862;19.378;2023-02-15T04:30:25;26.80;;;19.30;;
58784;SDS011;44557;51.862;19.378;2023-02-15T04:32:27;25.00;;;19.70;;
58784;SDS011;44557;51.862;19.378;2023-02-15T04:34:28;29.10;;;20.30;;
58784;SDS011;44557;51.862;19.378;2023-02-15T04:36:30;27.40;;;19.80;;
58784;SDS011;44557;51.862;19.378;2023-02-15T04:38:32;25.70;;;19.40;;
58784;SDS011;44557;51.862;19.378;2023-02-15T04:40:33;27.50;;;20.10;;
58784;SDS011;44557;51.862;19.378;2023-02-15T04:42:35;25.00;;;19.10;;
58784;SDS011;44557;51.862;19.378;2023-02-15T04:44:36;24.20;;;19.50;;
58784;SDS011;44557;51.862;19.378;2023-02-15T04:46:38;25.40;;;19.20;;
58784;SDS011;44557;51.862;19.378;2023-02-15T04:48:39;26.10;;;19.80;;
58784;SDS011;44557;51.862;19.378;2023-02-15T04:50:41;26.60;;;20.30;;
58784;SDS011;44557;51.862;19.378;2023-02-15T04:52:42;32.10;;;20.70;;
58784;SDS011;44557;51.862;19.378;2023-02-15T04:54:44;26.50;;;19.40;;
58784;SDS011;44557;51.862;19.378;2023-02-15T04:56:46;25.00;;;19.40;;
58784;SDS011;44557;51.862;19.378;2023-02-15T04:58:47;24.50;;;19.20;;
58784;SDS011;44557;51.862;19.378;2023-02-15T05:00:49;24.00;;;19.50;;
58784;SDS011;44557;51.862;19.378;2023-02-15T05:02:51;26.50;;;18.30;;
58784;SDS011;44557;51.862;19.378;2023-02-15T05:04:52;27.10;;;19.10;;
58784;SDS011;44557;51.862;19.378;2023-02-15T05:06:54;25.20;;;19.60;;
58784;SDS011;44557;51.862;19.378;2023-02-15T05:08:55;26.20;;;19.10;;
58784;SDS011;44557;51.862;19.378;2023-02-15T05:11:00;24.00;;;18.30;;
58784;SDS011;44557;51.862;19.378;2023-02-15T05:13:01;24.80;;;19.60;;
58784;SDS011;44557;51.862;19.378;2023-02-15T05:15:03;30.40;;;20.20;;
58784;SDS011;44557;51.862;19.378;2023-02-15T05:17:05;25.00;;;19.90;;
58784;SDS011;44557;51.862;19.378;2023-02-15T05:19:06;28.50;;;19.90;;
58784;SDS011;44557;51.862;19.378;2023-02-15T05:21:08;27.30;;;19.60;;
58784;SDS011;44557;51.862;19.378;2023-02-15T05:23:10;25.70;;;19.50;;
58784;SDS011;44557;51.862;19.378;2023-02-15T05:25:11;26.30;;;19.90;;
58784;SDS011;44557;51.862;19.378;2023-02-15T05:27:31;25.10;;;19.40;;
58784;SDS011;44557;51.862;19.378;2023-02-15T05:29:51;26.50;;;19.90;;
58784;SDS011;44557;51.862;19.378;2023-02-15T05:31:52;29.70;;;22.20;;
58784;SDS011;44557;51.862;19.378;2023-02-15T05:33:54;30.10;;;22.10;;
58784;SDS011;44557;51.862;19.378;2023-02-15T05:35:56;31.50;;;21.60;;
58784;SDS011;44557;51.862;19.378;2023-02-15T05:37:57;28.60;;;22.20;;
58784;SDS011;44557;51.862;19.378;2023-02-15T05:39:59;32.30;;;22.90;;
58784;SDS011;44557;51.862;19.378;2023-02-15T05:42:00;35.80;;;22.50;;
58784;SDS011;44557;51.862;19.378;2023-02-15T05:44:02;32.70;;;23.20;;
58784;SDS011;44557;51.862;19.378;2023-02-15T05:46:04;33.40;;;23.60;;
58784;SDS011;44557;51.862;19.378;2023-02-15T05:48:06;38.90;;;26.30;;
58784;SDS011;44557;51.862;19.378;2023-02-15T05:50:07;37.70;;;25.90;;
58784;SDS011;44557;51.862;19.378;2023-02-15T05:52:09;38.50;;;26.30;;
58784;SDS011;44557;51.862;19.378;2023-02-15T05:54:13;34.50;;;23.90;;
58784;SDS011;44557;51.862;19.378;2023-02-15T05:56:14;30.60;;;21.60;;
58784;SDS011;44557;51.862;19.378;2023-02-15T05:58:16;29.10;;;20.60;;
58784;SDS011;44557;51.862;19.378;2023-02-15T06:00:17;27.60;;;20.30;;
58784;SDS011;44557;51.862;19.378;2023-02-15T06:02:19;25.90;;;19.90;;
58784;SDS011;44557;51.862;19.378;2023-02-15T06:04:21;26.50;;;19.40;;
58784;SDS011;44557;51.862;19.378;2023-02-15T06:06:22;27.00;;;19.60;;
58784;SDS011;44557;51.862;19.378;2023-02-15T06:08:24;28.10;;;19.90;;
58784;SDS011;44557;51.862;19.378;2023-02-15T06:10:25;25.90;;;19.30;;
58784;SDS011;44557;51.862;19.378;2023-02-15T06:12:27;27.70;;;20.20;;
58784;SDS011;44557;51.862;19.378;2023-02-15T06:14:28;28.80;;;20.10;;
58784;SDS011;44557;51.862;19.378;2023-02-15T06:16:30;30.90;;;21.70;;
58784;SDS011;44557;51.862;19.378;2023-02-15T06:18:31;30.70;;;22.00;;
58784;SDS011;44557;51.862;19.378;2023-02-15T06:20:33;26.80;;;19.60;;
58784;SDS011;44557;51.862;19.378;2023-02-15T06:22:34;27.80;;;20.70;;
58784;SDS011;44557;51.862;19.378;2023-02-15T06:24:36;30.70;;;21.90;;
58784;SDS011;44557;51.862;19.378;2023-02-15T06:26:37;31.80;;;21.30;;
58784;SDS011;44557;51.862;19.378;2023-02-15T06:28:39;28.40;;;19.80;;
58784;SDS011;44557;51.862;19.378;2023-02-15T06:30:42;30.50;;;21.50;;
58784;SDS011;44557;51.862;19.378;2023-02-15T06:32:43;29.40;;;21.50;;
58784;SDS011;44557;51.862;19.378;2023-02-15T06:34:45;31.80;;;21.80;;
58784;SDS011;44557;51.862;19.378;2023-02-15T06:36:46;31.00;;;22.00;;
58784;SDS011;44557;51.862;19.378;2023-02-15T06:38:48;32.20;;;22.10;;
58784;SDS011;44557;51.862;19.378;2023-02-15T06:40:49;34.10;;;24.10;;
58784;SDS011;44557;51.862;19.378;2023-02-15T06:42:51;33.00;;;23.60;;
58784;SDS011;44557;51.862;19.378;2023-02-15T06:44:52;34.40;;;24.40;;
58784;SDS011;44557;51.862;19.378;2023-02-15T06:46:54;32.10;;;23.50;;
58784;SDS011;44557;51.862;19.378;2023-02-15T06:48:55;33.60;;;23.90;;
58784;SDS011;44557;51.862;19.378;2023-02-15T06:50:57;34.80;;;24.00;;
58784;SDS011;44557;51.862;19.378;2023-02-15T06:52:58;33.30;;;24.00;;
58784;SDS011;44557;51.862;19.378;2023-02-15T06:55:00;34.70;;;23.10;;
58784;SDS011;44557;51.862;19.378;2023-02-15T06:57:01;35.10;;;24.00;;
58784;SDS011;44557;51.862;19.378;2023-02-15T06:59:03;34.60;;;24.90;;
58784;SDS011;44557;51.862;19.378;2023-02-15T07:01:05;36.40;;;25.00;;
58784;SDS011;44557;51.862;19.378;2023-02-15T07:03:07;34.60;;;23.00;;
58784;SDS011;44557;51.862;19.378;2023-02-15T07:05:09;40.40;;;26.00;;
58784;SDS011;44557;51.862;19.378;2023-02-15T07:07:11;38.90;;;26.30;;
58784;SDS011;44557;51.862;19.378;2023-02-15T07:09:12;36.80;;;25.10;;
58784;SDS011;44557;51.862;19.378;2023-02-15T07:11:14;40.20;;;27.10;;
58784;SDS011;44557;51.862;19.378;2023-02-15T07:15:35;37.50;;;24.80;;
58784;SDS011;44557;51.862;19.378;2023-02-15T07:17:37;39.70;;;26.10;;
58784;SDS011;44557;51.862;19.378;2023-02-15T07:19:38;38.50;;;25.00;;
58784;SDS011;44557;51.862;19.378;2023-02-15T07:21:40;37.50;;;26.70;;
58784;SDS011;44557;51.862;19.378;2023-02-15T07:23:41;36.90;;;25.80;;
58784;SDS011;44557;51.862;19.378;2023-02-15T07:25:43;36.70;;;26.80;;
58784;SDS011;44557;51.862;19.378;2023-02-15T07:27:44;40.70;;;28.00;;
58784;SDS011;44557;51.862;19.378;2023-02-15T07:29:46;38.60;;;26.60;;
58784;SDS011;44557;51.862;19.378;2023-02-15T07:31:48;40.60;;;27.10;;
58784;SDS011;44557;51.862;19.378;2023-02-15T07:33:49;40.40;;;26.90;;
58784;SDS011;44557;51.862;19.378;2023-02-15T07:35:52;40.30;;;27.90;;
58784;SDS011;44557;51.862;19.378;2023-02-15T07:37:55;42.30;;;27.80;;
58784;SDS011;44557;51.862;19.378;2023-02-15T07:39:57;42.00;;;29.50;;
58784;SDS011;44557;51.862;19.378;2023-02-15T07:41:59;41.90;;;28.10;;
58784;SDS011;44557;51.862;19.378;2023-02-15T07:44:01;41.90;;;27.90;;
58784;SDS011;44557;51.862;19.378;2023-02-15T07:46:04;43.20;;;27.60;;
58784;SDS011;44557;51.862;19.378;2023-02-15T07:48:08;45.00;;;31.20;;
58784;SDS011;44557;51.862;19.378;2023-02-15T07:50:10;46.20;;;31.30;;
58784;SDS011;44557;51.862;19.378;2023-02-15T07:52:11;47.70;;;31.30;;
58784;SDS011;44557;51.862;19.378;2023-02-15T07:54:13;46.80;;;32.00;;
58784;SDS011;44557;51.862;19.378;2023-02-15T07:56:15;45.70;;;30.70;;
58784;SDS011;44557;51.862;19.378;2023-02-15T07:58:16;48.50;;;32.00;;
58784;SDS011;44557;51.862;19.378;2023-02-15T08:00:18;47.00;;;30.70;;
58784;SDS011;44557;51.862;19.378;2023-02-15T08:02:24;49.30;;;33.10;;
58784;SDS011;44557;51.862;19.378;2023-02-15T08:04:26;42.30;;;28.10;;
58784;SDS011;44557;51.862;19.378;2023-02-15T08:06:28;44.80;;;31.10;;
58784;SDS011;44557;51.862;19.378;2023-02-15T08:08:35;46.70;;;30.00;;
58784;SDS011;44557;51.862;19.378;2023-02-15T08:10:37;42.50;;;28.60;;
58784;SDS011;44557;51.862;19.378;2023-02-15T08:12:57;40.60;;;27.90;;
58784;SDS011;44557;51.862;19.378;2023-02-15T08:14:58;38.30;;;25.80;;
58784;SDS011;44557;51.862;19.378;2023-02-15T08:17:00;40.20;;;27.60;;
58784;SDS011;44557;51.862;19.378;2023-02-15T08:19:19;41.10;;;27.10;;
58784;SDS011;44557;51.862;19.378;2023-02-15T08:21:22;43.30;;;29.40;;
58784;SDS011;44557;51.862;19.378;2023-02-15T08:23:25;46.20;;;29.80;;
58784;SDS011;44557;51.862;19.378;2023-02-15T08:25:27;44.90;;;29.00;;
58784;SDS011;44557;51.862;19.378;2023-02-15T08:27:28;42.40;;;27.20;;
58784;SDS011;44557;51.862;19.378;2023-02-15T08:29:30;42.90;;;27.40;;
58784;SDS011;44557;51.862;19.378;2023-02-15T08:31:32;43.10;;;27.00;;
58784;SDS011;44557;51.862;19.378;2023-02-15T08:33:35;43.00;;;27.40;;
58784;SDS011;44557;51.862;19.378;2023-02-15T08:35:38;39.20;;;26.90;;
58784;SDS011;44557;51.862;19.378;2023-02-15T08:37:39;40.80;;;27.40;;
58784;SDS011;44557;51.862;19.378;2023-02-15T08:39:41;45.00;;;26.70;;
58784;SDS011;44557;51.862;19.378;2023-02-15T08:41:45;44.20;;;29.00;;
58784;SDS011;44557;51.862;19.378;2023-02-15T08:43:49;45.20;;;28.40;;
58784;SDS011;44557;51.862;19.378;2023-02-15T08:45:53;42.30;;;27.10;;
58784;SDS011;44557;51.862;19.378;2023-02-15T08:47:54;42.80;;;26.80;;
58784;SDS011;44557;51.862;19.378;2023-02-15T08:49:56;41.60;;;27.20;;
58784;SDS011;44557;51.862;19.378;2023-02-15T08:51:57;42.40;;;26.50;;
58784;SDS011;44557;51.862;19.378;2023-02-15T08:54:00;40.30;;;25.70;;
58784;SDS011;44557;51.862;19.378;2023-02-15T08:56:04;41.50;;;27.60;;
58784;SDS011;44557;51.862;19.378;2023-02-15T08:58:06;42.30;;;27.50;;
58784;SDS011;44557;51.862;19.378;2023-02-15T09:00:07;40.30;;;27.10;;
58784;SDS011;44557;51.862;19.378;2023-02-15T09:02:10;44.80;;;30.10;;
58784;SDS011;44557;51.862;19.378;2023-02-15T09:04:12;48.40;;;30.30;;
58784;SDS011;44557;51.862;19.378;2023-02-15T09:06:14;46.50;;;30.20;;
58784;SDS011;44557;51.862;19.378;2023-02-15T09:08:17;50.30;;;31.10;;
58784;SDS011;44557;51.862;19.378;2023-02-15T09:10:18;49.40;;;30.40;;
58784;SDS011;44557;51.862;19.378;2023-02-15T09:12:20;52.30;;;33.00;;
58784;SDS011;44557;51.862;19.378;2023-02-15T09:14:21;45.10;;;29.90;;
58784;SDS011;44557;51.862;19.378;2023-02-15T09:16:26;52.90;;;30.60;;
58784;SDS011;44557;51.862;19.378;2023-02-15T09:18:30;49.80;;;31.30;;
58784;SDS011;44557;51.862;19.378;2023-02-15T09:20:35;56.00;;;33.80;;
58784;SDS011;44557;51.862;19.378;2023-02-15T09:22:37;57.00;;;34.80;;
58784;SDS011;44557;51.862;19.378;2023-02-15T09:24:38;68.40;;;38.70;;
58784;SDS011;44557;51.862;19.378;2023-02-15T09:26:41;59.80;;;34.70;;
58784;SDS011;44557;51.862;19.378;2023-02-15T09:28:45;53.30;;;32.50;;
58784;SDS011;44557;51.862;19.378;2023-02-15T09:30:49;47.40;;;30.70;;
58784;SDS011;44557;51.862;19.378;2023-02-15T09:32:51;48.70;;;30.70;;
58784;SDS011;44557;51.862;19.378;2023-02-15T09:34:52;47.30;;;29.70;;
58784;SDS011;44557;51.862;19.378;2023-02-15T09:36:54;50.00;;;31.00;;
58784;SDS011;44557;51.862;19.378;2023-02-15T09:38:56;50.40;;;30.40;;
58784;SDS011;44557;51.862;19.378;2023-02-15T09:41:16;46.60;;;29.00;;
58784;SDS011;44557;51.862;19.378;2023-02-15T09:43:27;49.60;;;30.70;;
58784;SDS011;44557;51.862;19.378;2023-02-15T09:45:47;47.10;;;29.30;;
58784;SDS011;44557;51.862;19.378;2023-02-15T09:48:17;47.70;;;31.30;;
58784;SDS011;44557;51.862;19.378;2023-02-15T09:52:48;48.60;;;30.40;;
58784;SDS011;44557;51.862;19.378;2023-02-15T09:57:16;47.70;;;29.00;;
58784;SDS011;44557;51.862;19.378;2023-02-15T09:59:28;48.80;;;30.20;;
58784;SDS011;44557;51.862;19.378;2023-02-15T10:01:39;48.50;;;30.70;;
58784;SDS011;44557;51.862;19.378;2023-02-15T10:11:09;44.70;;;27.50;;
58784;SDS011;44557;51.862;19.378;2023-02-15T10:13:41;52.90;;;30.80;;
58784;SDS011;44557;51.862;19.378;2023-02-15T10:20:56;53.60;;;33.00;;
58784;SDS011;44557;51.862;19.378;2023-02-15T10:27:39;48.60;;;28.90;;
58784;SDS011;44557;51.862;19.378;2023-02-15T10:29:55;47.10;;;28.60;;
58784;SDS011;44557;51.862;19.378;2023-02-15T10:32:22;53.10;;;32.10;;
58784;SDS011;44557;51.862;19.378;2023-02-15T10:34:38;47.00;;;28.70;;
58784;SDS011;44557;51.862;19.378;2023-02-15T10:51:38;48.20;;;28.80;;
58784;SDS011;44557;51.862;19.378;2023-02-15T10:56:19;50.50;;;31.40;;
58784;SDS011;44557;51.862;19.378;2023-02-15T11:01:18;49.80;;;31.60;;
58784;SDS011;44557;51.862;19.378;2023-02-15T11:06:00;49.60;;;29.60;;
58784;SDS011;44557;51.862;19.378;2023-02-15T11:08:06;51.30;;;31.70;;
58784;SDS011;44557;51.862;19.378;2023-02-15T11:12:24;48.30;;;30.00;;
58784;SDS011;44557;51.862;19.378;2023-02-15T11:14:36;47.40;;;28.30;;
58784;SDS011;44557;51.862;19.378;2023-02-15T11:16:45;49.00;;;28.40;;
58784;SDS011;44557;51.862;19.378;2023-02-15T11:18:57;46.70;;;27.40;;
58784;SDS011;44557;51.862;19.378;2023-02-15T11:23:22;49.60;;;28.90;;
58784;SDS011;44557;51.862;19.378;2023-02-15T11:25:32;49.80;;;29.70;;
58784;SDS011;44557;51.862;19.378;2023-02-15T11:27:35;55.90;;;33.60;;
58784;SDS011;44557;51.862;19.378;2023-02-15T11:31:56;51.40;;;30.90;;
58784;SDS011;44557;51.862;19.378;2023-02-15T11:34:02;53.40;;;32.30;;
58784;SDS011;44557;51.862;19.378;2023-02-15T11:36:41;53.90;;;30.90;;
58784;SDS011;44557;51.862;19.378;2023-02-15T11:38:38;52.60;;;29.90;;
58784;SDS011;44557;51.862;19.378;2023-02-15T11:40:48;57.50;;;32.30;;
58784;SDS011;44557;51.862;19.378;2023-02-15T11:43:28;52.30;;;31.20;;
58784;SDS011;44557;51.862;19.378;2023-02-15T11:45:37;54.70;;;30.70;;
58784;SDS011;44557;51.862;19.378;2023-02-15T11:47:43;59.00;;;33.30;;
58784;SDS011;44557;51.862;19.378;2023-02-15T11:49:45;57.30;;;32.60;;
58784;SDS011;44557;51.862;19.378;2023-02-15T11:51:47;52.90;;;30.10;;
58784;SDS011;44557;51.862;19.378;2023-02-15T11:53:49;53.60;;;29.50;;
58784;SDS011;44557;51.862;19.378;2023-02-15T11:55:51;58.10;;;31.00;;
58784;SDS011;44557;51.862;19.378;2023-02-15T11:57:54;55.60;;;29.80;;
58784;SDS011;44557;51.862;19.378;2023-02-15T12:00:03;56.80;;;31.40;;
58784;SDS011;44557;51.862;19.378;2023-02-15T12:02:15;53.20;;;28.80;;
58784;SDS011;44557;51.862;19.378;2023-02-15T12:04:38;55.60;;;30.20;;
58784;SDS011;44557;51.862;19.378;2023-02-15T12:06:46;57.80;;;28.70;;
58784;SDS011;44557;51.862;19.378;2023-02-15T12:11:31;56.80;;;29.30;;
58784;SDS011;44557;51.862;19.378;2023-02-15T12:13:36;55.60;;;28.90;;
58784;SDS011;44557;51.862;19.378;2023-02-15T12:15:38;56.10;;;30.50;;
58784;SDS011;44557;51.862;19.378;2023-02-15T12:17:53;54.70;;;29.40;;
58784;SDS011;44557;51.862;19.378;2023-02-15T12:20:07;59.20;;;30.00;;
58784;SDS011;44557;51.862;19.378;2023-02-15T12:22:29;51.40;;;27.40;;
58784;SDS011;44557;51.862;19.378;2023-02-15T12:24:37;56.70;;;30.90;;
58784;SDS011;44557;51.862;19.378;2023-02-15T12:26:45;51.70;;;28.40;;
58784;SDS011;44557;51.862;19.378;2023-02-15T12:29:12;50.80;;;28.20;;
58784;SDS011;44557;51.862;19.378;2023-02-15T12:31:28;48.20;;;26.30;;
58784;SDS011;44557;51.862;19.378;2023-02-15T12:33:34;56.90;;;29.70;;
58784;SDS011;44557;51.862;19.378;2023-02-15T12:35:42;57.60;;;30.80;;
58784;SDS011;44557;51.862;19.378;2023-02-15T12:37:55;52.80;;;29.50;;
58784;SDS011;44557;51.862;19.378;2023-02-15T12:40:20;54.40;;;30.90;;
58784;SDS011;44557;51.862;19.378;2023-02-15T12:42:25;56.90;;;30.30;;
58784;SDS011;44557;51.862;19.378;2023-02-15T12:44:35;59.30;;;32.00;;
58784;SDS011;44557;51.862;19.378;2023-02-15T12:46:38;61.20;;;32.50;;
58784;SDS011;44557;51.862;19.378;2023-02-15T12:48:39;58.30;;;32.60;;
58784;SDS011;44557;51.862;19.378;2023-02-15T12:50:42;58.90;;;32.10;;
58784;SDS011;44557;51.862;19.378;2023-02-15T12:52:46;52.50;;;28.50;;
58784;SDS011;44557;51.862;19.378;2023-02-15T12:54:49;57.10;;;32.50;;
58784;SDS011;44557;51.862;19.378;2023-02-15T12:56:51;56.90;;;31.50;;
58784;SDS011;44557;51.862;19.378;2023-02-15T12:59:04;54.80;;;30.30;;
58784;SDS011;44557;51.862;19.378;2023-02-15T13:03:19;55.40;;;31.10;;
58784;SDS011;44557;51.862;19.378;2023-02-15T13:05:37;53.10;;;31.20;;
58784;SDS011;44557;51.862;19.378;2023-02-15T13:07:45;58.90;;;32.60;;
58784;SDS011;44557;51.862;19.378;2023-02-15T13:09:51;50.60;;;30.30;;
58784;SDS011;44557;51.862;19.378;2023-02-15T13:11:52;56.00;;;31.40;;
58784;SDS011;44557;51.862;19.378;2023-02-15T13:13:56;53.10;;;30.30;;
58784;SDS011;44557;51.862;19.378;2023-02-15T13:16:04;56.00;;;29.60;;
58784;SDS011;44557;51.862;19.378;2023-02-15T13:18:13;54.90;;;30.00;;
58784;SDS011;44557;51.862;19.378;2023-02-15T13:20:19;52.70;;;28.30;;
58784;SDS011;44557;51.862;19.378;2023-02-15T13:22:27;51.80;;;27.50;;
58784;SDS011;44557;51.862;19.378;2023-02-15T13:24:36;49.70;;;28.50;;
58784;SDS011;44557;51.862;19.378;2023-02-15T13:26:41;54.10;;;29.80;;
58784;SDS011;44557;51.862;19.378;2023-02-15T13:28:50;52.80;;;26.90;;
58784;SDS011;44557;51.862;19.378;2023-02-15T13:30:55;53.10;;;29.20;;